Terminal Aerodrome Forecast
Issued by NWS Lake Charles, LA

Home | Current Version | Previous Version | Text Only | Print | Product List | Glossary On
Versions: 1 2 3 4 5 6 7 8 9 10 11 12 13 14 15 16 17 18 19 20 21
000
FTUS44 KLCH 220521
TAFARA
TAF
KARA 220521Z 2206/2306 36010KT P6SM BKN012 BKN018
      TEMPO 2206/2209 SCT012 OVC020
     FM220900 01008KT 5SM BR BKN009 OVC016
      TEMPO 2209/2212 2SM BR SCT009 BKN013 OVC018
     FM221300 04008KT P6SM BKN013 BKN022
     FM221600 10006KT P6SM SCT025 BKN035
      TEMPO 2218/2222 2SM TSRA SCT016 OVC022CB=

USA.gov is the U.S. government's official web portal to all federal, state and local government web resources and services.